Greenwood, Florida
Current Conditions -  °F | °C
As of 1:53 PM on Monday 24 Nov 2014 (Local Time) from KMAI Reporting Station
Scattered Clouds Scattered Clouds  
Wind Chill: 75°   Ceiling: Unl
Heat Index: 75°   Visibility: 10mi
Dew Point: 68°   Wind: 10mph
Humidity: 79%   Direction: 180°S
Pressure: 29.82"   Gusts: NA
Location:  30.87°N, 85.16°W
Report Text: KMAI 241953Z AUTO 18009KT 10SM SCT110 24/20 A2982 RMK AO2 LTG DSNT E RAE44 SLP098 T02390200 $
Loading
Personal Weather Stations






























Interactive Weather Map New forecast layout! Learn more

10-Day Weather Forecast

Advertisements
Track Severe Weather on mobile